createdAt,value
2022-11-04T00:01:16.839Z,46.55
2022-11-04T00:03:43.665Z,42.33
2022-11-04T00:06:10.292Z,45.72
2022-11-04T00:08:37.154Z,54.42
2022-11-04T00:11:22.752Z,58.47
2022-11-04T00:13:49.397Z,45.75
2022-11-04T00:16:34.694Z,40.47
2022-11-04T00:19:02.223Z,51.30
2022-11-04T00:21:48.029Z,38.40
2022-11-04T00:24:30.289Z,48.60
2022-11-04T00:27:16.351Z,43.38
2022-11-04T00:29:43.067Z,58.20
2022-11-04T00:32:29.205Z,43.70
2022-11-04T00:34:56.093Z,43.33
2022-11-04T00:37:23.184Z,46.50
2022-11-04T00:39:49.771Z,43.08
2022-11-04T00:42:16.405Z,41.17
2022-11-04T00:44:43.005Z,48.03
2022-11-04T00:47:09.568Z,54.60
2022-11-04T00:49:36.127Z,36.83
2022-11-04T00:52:02.667Z,42.60
2022-11-04T00:54:29.283Z,40.50
2022-11-04T00:56:56.180Z,38.30
2022-11-04T00:59:22.769Z,34.95
2022-11-04T01:01:49.454Z,42.53
2022-11-04T01:04:16.265Z,34.22
2022-11-04T01:06:42.847Z,41.47
2022-11-04T01:09:12.009Z,38.00
2022-11-04T01:11:38.747Z,42.15
2022-11-04T01:14:05.567Z,37.63
2022-11-04T01:16:32.225Z,39.65
2022-11-04T01:18:59.099Z,44.78
2022-11-04T01:21:28.240Z,43.75
2022-11-04T01:23:55.135Z,38.85
2022-11-04T01:26:25.187Z,46.75
2022-11-04T01:28:54.580Z,38.90
2022-11-04T01:31:23.902Z,35.47
2022-11-04T01:33:52.392Z,34.20
2022-11-04T01:36:20.203Z,46.33
2022-11-04T01:38:47.342Z,41.10
2022-11-04T01:41:22.890Z,31.88
2022-11-04T01:43:54.362Z,37.45
2022-11-04T01:46:25.595Z,41.90
2022-11-04T01:48:53.810Z,33.57
2022-11-04T01:51:20.990Z,34.50
2022-11-04T01:53:50.439Z,38.80
2022-11-04T01:56:17.409Z,37.17
2022-11-04T01:58:51.651Z,40.72
2022-11-04T02:01:19.385Z,28.60
2022-11-04T02:03:53.147Z,32.05
2022-11-04T02:06:22.285Z,38.10
2022-11-04T02:08:49.489Z,31.50
2022-11-04T02:11:36.226Z,40.45
2022-11-04T02:14:03.085Z,30.75
2022-11-04T02:16:45.140Z,30.30
2022-11-04T02:19:20.790Z,33.67
2022-11-04T02:22:19.666Z,36.05
2022-11-04T02:24:58.055Z,32.97
2022-11-04T02:27:57.023Z,27.75
2022-11-04T02:30:23.922Z,32.08
2022-11-04T02:33:10.306Z,30.10
2022-11-04T02:35:43.846Z,28.67
2022-11-04T02:38:31.887Z,35.92
2022-11-04T02:41:01.224Z,27.08
2022-11-04T02:44:10.349Z,32.45
2022-11-04T02:46:55.022Z,25.55
2022-11-04T02:49:52.913Z,30.30
2022-11-04T02:52:42.216Z,33.08
2022-11-04T02:55:18.035Z,27.52
2022-11-04T02:57:47.068Z,32.13
2022-11-04T03:00:14.944Z,30.13
2022-11-04T03:02:53.005Z,31.70
2022-11-04T03:05:28.294Z,33.95
2022-11-04T03:07:58.791Z,31.95
2022-11-04T03:10:33.061Z,24.35
2022-11-04T03:13:11.794Z,27.05
2022-11-04T03:15:41.999Z,28.33
2022-11-04T03:18:16.596Z,29.00
2022-11-04T03:20:46.402Z,29.30
2022-11-04T03:23:13.627Z,30.27
2022-11-04T03:25:45.130Z,28.08
2022-11-04T03:28:37.400Z,33.60
2022-11-04T03:31:06.826Z,38.53
2022-11-04T03:33:46.263Z,28.95
2022-11-04T03:36:13.211Z,32.80
2022-11-04T03:38:39.874Z,31.42
2022-11-04T03:41:20.124Z,38.60
2022-11-04T03:43:46.713Z,33.05
2022-11-04T03:46:13.618Z,33.15
2022-11-04T03:48:41.820Z,31.92
2022-11-04T03:51:09.488Z,29.40
2022-11-04T03:53:36.481Z,29.98
2022-11-04T03:56:27.456Z,31.55
2022-11-04T03:59:15.400Z,28.05
2022-11-04T04:01:44.684Z,27.98
2022-11-04T04:04:19.984Z,27.55
2022-11-04T04:06:46.934Z,26.75
2022-11-04T04:09:21.614Z,27.75
2022-11-04T04:12:25.150Z,35.28
2022-11-04T04:14:56.351Z,29.67
2022-11-04T04:17:45.979Z,27.70
2022-11-04T04:20:18.408Z,28.30
2022-11-04T04:23:03.305Z,26.40
2022-11-04T04:25:50.894Z,30.15
2022-11-04T04:28:19.451Z,29.27
2022-11-04T04:30:46.537Z,31.80
2022-11-04T04:33:18.599Z,29.73
2022-11-04T04:35:54.322Z,27.50
2022-11-04T04:38:45.000Z,30.25
2022-11-04T04:41:32.199Z,26.77
2022-11-04T04:44:17.858Z,24.63
2022-11-04T04:46:49.452Z,28.85
2022-11-04T04:49:16.101Z,33.30
2022-11-04T04:51:45.734Z,29.65
2022-11-04T04:54:12.353Z,33.05
2022-11-04T04:56:38.892Z,23.65
2022-11-04T04:59:05.958Z,32.05
2022-11-04T05:01:33.261Z,33.13
2022-11-04T05:03:59.919Z,32.20
2022-11-04T05:06:28.366Z,28.55
2022-11-04T05:10:22.616Z,33.35
2022-11-04T05:13:07.893Z,26.90
2022-11-04T05:15:34.528Z,29.90
2022-11-04T05:18:03.555Z,34.22
2022-11-04T05:20:32.819Z,33.67
2022-11-04T05:23:00.132Z,28.05
2022-11-04T05:25:27.887Z,30.48
2022-11-04T05:27:54.375Z,28.17
2022-11-04T05:30:20.934Z,31.23
2022-11-04T05:32:47.563Z,26.77
2022-11-04T05:35:14.179Z,29.27
2022-11-04T05:37:40.783Z,32.67
2022-11-04T05:40:07.890Z,22.33
2022-11-04T05:42:36.690Z,33.22
2022-11-04T05:45:04.383Z,30.88
2022-11-04T05:47:30.886Z,30.90
2022-11-04T05:49:57.424Z,36.38
2022-11-04T05:52:23.972Z,37.45
2022-11-04T05:54:50.568Z,27.75
2022-11-04T05:57:17.045Z,31.95
2022-11-04T05:59:43.637Z,28.17
2022-11-04T06:02:10.247Z,32.33
2022-11-04T06:04:36.897Z,25.65
2022-11-04T06:07:03.439Z,29.95
2022-11-04T06:09:39.188Z,33.63
2022-11-04T06:12:07.049Z,31.58
2022-11-04T06:14:33.563Z,30.58
2022-11-04T06:17:00.859Z,30.88
2022-11-04T06:19:27.491Z,33.15
2022-11-04T06:21:54.124Z,29.30
2022-11-04T06:24:20.623Z,34.85
2022-11-04T06:26:50.183Z,30.58
2022-11-04T06:29:16.767Z,29.50
2022-11-04T06:31:43.363Z,37.28
2022-11-04T06:34:10.094Z,41.05
2022-11-04T06:36:36.689Z,32.13
2022-11-04T06:39:05.419Z,29.92
2022-11-04T06:41:32.127Z,36.05
2022-11-04T06:43:58.699Z,28.63
2022-11-04T06:46:45.627Z,42.47
2022-11-04T06:49:14.801Z,31.38
2022-11-04T06:51:41.770Z,33.47
2022-11-04T06:54:08.363Z,33.33
2022-11-04T06:56:34.904Z,32.88
2022-11-04T06:59:02.015Z,32.88
2022-11-04T07:01:31.479Z,31.63
2022-11-04T07:04:00.114Z,34.00
2022-11-04T07:06:29.079Z,28.52
2022-11-04T07:08:58.945Z,29.95
2022-11-04T07:11:26.985Z,23.05
2022-11-04T07:13:53.568Z,29.65
2022-11-04T07:16:20.120Z,26.83
2022-11-04T07:18:49.176Z,24.95
2022-11-04T07:21:16.239Z,25.52
2022-11-04T07:23:45.697Z,24.67
2022-11-04T07:26:12.985Z,21.80
2022-11-04T07:28:40.265Z,36.85
2022-11-04T07:31:09.147Z,29.52
2022-11-04T07:33:35.814Z,24.10
2022-11-04T07:36:11.603Z,23.60
2022-11-04T07:38:38.246Z,19.80
2022-11-04T07:41:05.229Z,26.42
2022-11-04T07:43:31.995Z,27.20
2022-11-04T07:46:00.255Z,22.90
2022-11-04T07:48:27.599Z,24.48
2022-11-04T07:50:59.617Z,16.48
2022-11-04T07:55:53.254Z,21.40
2022-11-04T07:58:20.759Z,26.23
2022-11-04T08:00:47.555Z,21.92
2022-11-04T08:03:14.460Z,24.80
2022-11-04T08:05:41.153Z,26.05
2022-11-04T08:08:07.901Z,19.85
2022-11-04T08:10:35.067Z,26.77
2022-11-04T08:13:01.607Z,20.80
2022-11-04T08:15:29.167Z,28.58
2022-11-04T08:17:55.874Z,26.67
2022-11-04T08:20:22.801Z,23.13
2022-11-04T08:22:49.338Z,21.17
2022-11-04T08:25:16.836Z,18.77
2022-11-04T08:27:43.858Z,21.98
2022-11-04T08:30:10.927Z,21.20
2022-11-04T08:32:37.534Z,22.98
2022-11-04T08:35:06.432Z,21.85
2022-11-04T08:37:33.859Z,20.48
2022-11-04T08:40:00.446Z,22.27
2022-11-04T08:42:30.019Z,20.13
2022-11-04T08:44:56.700Z,15.70
2022-11-04T08:47:23.257Z,20.65
2022-11-04T08:49:49.788Z,17.23
2022-11-04T08:52:16.362Z,18.08
2022-11-04T08:54:44.155Z,25.60
2022-11-04T08:57:11.154Z,17.02
2022-11-04T08:59:37.870Z,22.50
2022-11-04T09:02:04.467Z,23.85
2022-11-04T09:04:31.075Z,24.33
2022-11-04T09:06:57.800Z,18.60
2022-11-04T09:09:24.298Z,25.70
2022-11-04T09:11:50.936Z,25.23
2022-11-04T09:14:17.938Z,22.23
2022-11-04T09:16:44.719Z,37.88
2022-11-04T09:19:11.379Z,21.58
2022-11-04T09:21:37.971Z,16.98
2022-11-04T09:24:05.980Z,31.00
2022-11-04T09:26:32.838Z,20.65
2022-11-04T09:29:00.263Z,22.10
2022-11-04T09:31:30.201Z,21.08
2022-11-04T09:33:57.604Z,20.88
2022-11-04T09:36:24.375Z,25.52
2022-11-04T09:38:50.935Z,18.65
2022-11-04T09:41:20.526Z,22.55
2022-11-04T09:44:03.775Z,26.42
2022-11-04T09:46:33.860Z,19.25
2022-11-04T09:49:03.000Z,16.52
2022-11-04T09:51:53.112Z,22.40
2022-11-04T09:54:55.175Z,16.67
2022-11-04T09:57:21.923Z,18.35
2022-11-04T09:59:48.966Z,16.63
2022-11-04T10:02:34.018Z,19.02
2022-11-04T10:05:12.482Z,20.17
2022-11-04T10:07:53.144Z,21.05
2022-11-04T10:10:45.984Z,19.52
2022-11-04T10:13:21.722Z,23.92
2022-11-04T10:15:57.665Z,18.02
2022-11-04T10:18:48.735Z,18.02
2022-11-04T10:21:43.811Z,21.33
2022-11-04T10:24:25.173Z,15.23
2022-11-04T10:27:00.998Z,17.80
2022-11-04T10:29:51.995Z,22.75
2022-11-04T10:32:28.075Z,15.02
2022-11-04T10:35:04.509Z,21.33
2022-11-04T10:37:31.338Z,21.33
2022-11-04T10:40:17.251Z,25.65
2022-11-04T10:42:44.048Z,21.25
2022-11-04T10:45:14.681Z,13.32
2022-11-04T10:47:52.298Z,13.55
2022-11-04T10:50:30.598Z,11.35
2022-11-04T10:53:20.793Z,11.68
2022-11-04T10:55:51.908Z,13.73
2022-11-04T10:58:25.351Z,9.00
2022-11-04T11:00:53.322Z,20.23
2022-11-04T11:03:31.114Z,21.45
2022-11-04T11:06:19.650Z,13.95
2022-11-04T11:08:48.124Z,10.73
2022-11-04T11:11:16.142Z,10.73
2022-11-04T11:13:45.251Z,12.05
2022-11-04T11:16:27.075Z,15.07
2022-11-04T11:19:12.074Z,12.55
2022-11-04T11:21:50.256Z,15.75
2022-11-04T11:24:23.110Z,16.08
2022-11-04T11:27:01.499Z,20.23
2022-11-04T11:29:31.450Z,20.85
2022-11-04T11:32:00.822Z,17.30
2022-11-04T11:34:32.286Z,23.67
2022-11-04T11:37:02.283Z,17.42
2022-11-04T11:39:32.353Z,18.42
2022-11-04T11:42:06.344Z,21.63
2022-11-04T11:44:48.285Z,20.40
2022-11-04T11:47:28.161Z,18.80
2022-11-04T11:50:19.541Z,19.77
2022-11-04T11:52:48.124Z,23.10
2022-11-04T11:55:27.678Z,38.47
2022-11-04T12:00:56.894Z,20.83
2022-11-04T12:09:49.524Z,30.13
2022-11-04T12:12:21.995Z,29.35
2022-11-04T12:14:51.302Z,19.52
2022-11-04T12:17:26.589Z,29.42
2022-11-04T12:19:55.968Z,27.52
2022-11-04T12:22:53.336Z,21.20
2022-11-04T12:25:33.864Z,24.00
2022-11-04T12:28:37.226Z,20.42
2022-11-04T12:31:28.771Z,33.22
2022-11-04T12:34:01.387Z,29.00
2022-11-04T12:36:44.158Z,36.22
2022-11-04T12:39:16.688Z,38.05
2022-11-04T12:42:20.207Z,31.63
2022-11-04T12:45:03.596Z,35.70
2022-11-04T12:47:44.970Z,25.40
2022-11-04T12:50:19.470Z,21.53
2022-11-04T12:53:01.185Z,22.98
2022-11-04T12:55:49.378Z,18.50
2022-11-04T12:58:44.717Z,29.35
2022-11-04T13:01:46.937Z,21.70
2022-11-04T13:07:01.133Z,24.15
2022-11-04T13:09:38.824Z,22.52
2022-11-04T13:12:11.718Z,25.58
2022-11-04T13:14:45.031Z,20.52
2022-11-04T13:17:16.167Z,24.92
2022-11-04T13:19:48.553Z,15.07
2022-11-04T13:22:25.583Z,18.50
2022-11-04T13:25:10.993Z,17.05
2022-11-04T13:27:40.748Z,16.15
2022-11-04T13:30:35.588Z,15.98
2022-11-04T13:33:02.566Z,18.83
2022-11-04T13:35:55.458Z,22.10
2022-11-04T13:38:41.065Z,16.70
2022-11-04T13:41:22.654Z,15.57
2022-11-04T13:43:56.138Z,30.80
2022-11-04T13:46:23.751Z,13.18
2022-11-04T13:51:12.135Z,23.20
2022-11-04T13:53:41.376Z,21.73
2022-11-04T13:56:31.554Z,23.77
2022-11-04T13:59:01.181Z,48.13
2022-11-04T14:01:31.225Z,45.08
2022-11-04T14:04:13.059Z,34.28
2022-11-04T14:07:04.958Z,27.15
2022-11-04T14:09:35.362Z,27.33
2022-11-04T14:12:11.143Z,36.25
2022-11-04T14:14:42.748Z,27.90
2022-11-04T14:17:35.240Z,32.50
2022-11-04T14:20:26.022Z,29.20
2022-11-04T14:23:00.999Z,36.45
2022-11-04T14:26:02.756Z,37.90
2022-11-04T14:28:31.355Z,27.03
2022-11-04T14:31:03.799Z,24.88
2022-11-04T14:33:36.070Z,24.80
2022-11-04T14:36:21.044Z,32.40
2022-11-04T14:38:59.471Z,24.83
2022-11-04T14:41:28.851Z,25.98
2022-11-04T14:43:58.804Z,34.03
2022-11-04T14:46:30.143Z,43.33
2022-11-04T14:49:01.055Z,52.55
2022-11-04T14:51:40.032Z,41.80
2022-11-04T14:54:22.238Z,29.20
2022-11-04T14:59:29.810Z,30.05
2022-11-04T15:01:56.654Z,31.75
2022-11-04T15:04:30.947Z,29.52
2022-11-04T15:07:00.358Z,31.75
2022-11-04T15:09:49.128Z,31.75
2022-11-04T15:12:37.575Z,34.25
2022-11-04T15:15:27.467Z,36.15
2022-11-04T15:17:59.307Z,37.45
2022-11-04T15:20:30.374Z,77.18
2022-11-04T15:23:00.258Z,52.00
2022-11-04T15:25:27.123Z,102.85
2022-11-04T15:30:21.906Z,41.10
2022-11-04T15:33:03.236Z,48.47
2022-11-04T15:35:32.617Z,41.57
2022-11-04T15:38:01.776Z,38.15
2022-11-04T15:40:29.681Z,36.08
2022-11-04T15:42:58.862Z,66.72
2022-11-04T15:45:29.160Z,58.10
2022-11-04T15:48:31.002Z,59.17
2022-11-04T15:51:23.760Z,88.47
2022-11-04T15:53:54.696Z,115.93
2022-11-04T15:56:26.867Z,70.22
2022-11-04T15:58:55.495Z,52.42
2022-11-04T16:01:23.046Z,43.22
2022-11-04T16:03:57.989Z,49.10
2022-11-04T16:06:33.776Z,55.65
2022-11-04T16:09:12.315Z,56.08
2022-11-04T16:11:38.950Z,49.78
2022-11-04T16:14:19.715Z,49.83
2022-11-04T16:16:49.827Z,51.97
2022-11-04T16:19:23.361Z,48.42
2022-11-04T16:22:03.155Z,52.60
2022-11-04T16:24:35.870Z,63.88
2022-11-04T16:27:02.593Z,50.15
2022-11-04T16:29:35.241Z,52.58
2022-11-04T16:32:19.688Z,49.03
2022-11-04T16:34:48.347Z,53.88
2022-11-04T16:37:15.038Z,53.05
2022-11-04T16:39:44.188Z,48.40
2022-11-04T16:42:13.894Z,47.42
2022-11-04T16:47:01.166Z,52.70
2022-11-04T16:49:27.981Z,55.60
2022-11-04T16:51:57.063Z,51.63
2022-11-04T16:54:24.598Z,45.67
2022-11-04T16:56:51.225Z,45.72
2022-11-04T16:59:17.895Z,59.97
2022-11-04T17:01:44.546Z,55.17
2022-11-04T17:04:11.329Z,48.85
2022-11-04T17:06:38.724Z,873.85
2022-11-04T17:09:18.817Z,1416.40
2022-11-04T17:11:45.463Z,721.85
2022-11-04T17:14:11.991Z,215.45
2022-11-04T17:16:38.663Z,150.13
2022-11-04T17:19:08.524Z,191.00
2022-11-04T17:21:35.196Z,97.43
2022-11-04T17:24:01.775Z,84.68
2022-11-04T17:26:28.323Z,60.30
2022-11-04T17:28:54.892Z,73.18
2022-11-04T17:31:21.643Z,63.33
2022-11-04T17:33:48.137Z,66.03
2022-11-04T17:36:18.366Z,65.78
2022-11-04T17:38:46.032Z,70.32
2022-11-04T17:41:31.082Z,92.03
2022-11-04T17:44:00.586Z,86.25
2022-11-04T17:46:34.792Z,81.70
2022-11-04T17:49:04.590Z,72.15
2022-11-04T17:51:31.471Z,102.63
2022-11-04T17:53:57.996Z,83.82
2022-11-04T17:56:25.190Z,75.50
2022-11-04T17:58:53.266Z,76.22
2022-11-04T18:01:22.253Z,82.32
2022-11-04T18:03:52.134Z,77.20
2022-11-04T18:06:20.218Z,75.72
2022-11-04T18:08:47.863Z,78.38
2022-11-04T18:11:35.024Z,95.32
2022-11-04T18:14:01.738Z,92.22
2022-11-04T18:16:28.432Z,109.30
2022-11-04T18:18:55.111Z,126.97
2022-11-04T18:23:55.131Z,91.50
2022-11-04T18:26:22.214Z,132.20
2022-11-04T18:28:48.814Z,120.95
2022-11-04T18:31:26.983Z,100.20
2022-11-04T18:33:54.909Z,90.53
2022-11-04T18:36:22.025Z,94.93
2022-11-04T18:38:51.763Z,106.53
2022-11-04T18:41:18.386Z,117.65
2022-11-04T18:43:45.151Z,117.72
2022-11-04T18:46:13.952Z,100.32
2022-11-04T18:48:41.593Z,109.47
2022-11-04T18:51:11.704Z,103.72
2022-11-04T18:53:38.514Z,92.72
2022-11-04T18:56:11.059Z,92.00
2022-11-04T18:58:39.006Z,80.90
2022-11-04T19:01:19.392Z,96.43
2022-11-04T19:03:46.764Z,92.43
2022-11-04T19:06:17.165Z,95.57
2022-11-04T19:08:46.619Z,108.68
2022-11-04T19:11:20.460Z,95.82
2022-11-04T19:13:56.582Z,89.20
2022-11-04T19:16:24.947Z,77.63
2022-11-04T19:18:52.922Z,97.35
2022-11-04T19:21:21.874Z,374.63
2022-11-04T19:23:49.511Z,226.63
2022-11-04T19:26:23.900Z,199.10
2022-11-04T19:28:51.427Z,217.50
2022-11-04T19:31:24.216Z,210.50
2022-11-04T19:33:52.050Z,223.85
2022-11-04T19:36:22.194Z,135.45
2022-11-04T19:38:52.671Z,137.65
2022-11-04T19:41:38.803Z,122.97
2022-11-04T19:44:15.810Z,102.35
2022-11-04T19:46:42.582Z,96.03
2022-11-04T19:49:10.031Z,94.55
2022-11-04T19:51:37.243Z,95.07
2022-11-04T19:54:04.339Z,101.45
2022-11-04T19:58:47.019Z,92.40
2022-11-04T20:01:16.291Z,85.45
2022-11-04T20:03:47.619Z,83.22
2022-11-04T20:06:16.348Z,88.03
2022-11-04T20:08:44.844Z,102.72
2022-11-04T20:11:13.000Z,96.75
2022-11-04T20:13:49.263Z,101.50
2022-11-04T20:16:28.195Z,99.80
2022-11-04T20:18:59.828Z,100.43
2022-11-04T20:21:30.182Z,98.72
2022-11-04T20:23:58.318Z,115.85
2022-11-04T20:26:27.255Z,108.03
2022-11-04T20:28:56.200Z,113.43
2022-11-04T20:31:28.736Z,110.18
2022-11-04T20:33:56.863Z,102.47
2022-11-04T20:36:28.378Z,98.40
2022-11-04T20:38:59.612Z,101.03
2022-11-04T20:41:26.882Z,115.23
2022-11-04T20:43:56.744Z,101.20
2022-11-04T20:46:26.683Z,103.50
2022-11-04T20:48:54.856Z,99.72
2022-11-04T20:51:32.310Z,101.07
2022-11-04T20:56:20.748Z,96.80
2022-11-04T20:58:51.996Z,103.75
2022-11-04T21:01:27.246Z,95.97
2022-11-04T21:04:02.253Z,119.20
2022-11-04T21:06:31.420Z,162.80
2022-11-04T21:09:00.627Z,143.20
2022-11-04T21:11:31.809Z,129.88
2022-11-04T21:14:00.667Z,121.97
2022-11-04T21:16:27.545Z,109.97
2022-11-04T21:18:54.572Z,122.70
2022-11-04T21:21:21.258Z,113.45
2022-11-04T21:23:56.249Z,108.95
2022-11-04T21:26:24.716Z,106.32
2022-11-04T21:28:55.286Z,102.47
2022-11-04T21:31:22.500Z,116.25
2022-11-04T21:33:49.305Z,116.65
2022-11-04T21:36:15.943Z,107.35
2022-11-04T21:38:42.646Z,103.90
2022-11-04T21:41:25.262Z,112.47
2022-11-04T21:43:56.697Z,112.15
2022-11-04T21:46:24.311Z,104.80
2022-11-04T21:48:50.923Z,112.35
2022-11-04T21:51:26.234Z,105.38
2022-11-04T21:53:52.885Z,111.20
2022-11-04T21:56:23.248Z,111.55
2022-11-04T21:58:51.698Z,116.13
2022-11-04T22:01:21.196Z,105.53
2022-11-04T22:03:53.772Z,104.25
2022-11-04T22:06:21.024Z,98.22
2022-11-04T22:08:49.640Z,115.80
2022-11-04T22:11:19.713Z,108.07
2022-11-04T22:13:46.275Z,111.38
2022-11-04T22:16:16.126Z,111.40
2022-11-04T22:18:45.828Z,104.95
2022-11-04T22:21:16.999Z,123.75
2022-11-04T22:23:44.801Z,120.93
2022-11-04T22:26:14.371Z,119.78
2022-11-04T22:28:41.320Z,117.53
2022-11-04T22:31:09.587Z,118.85
2022-11-04T22:33:37.656Z,124.85
2022-11-04T22:36:07.759Z,140.30
2022-11-04T22:38:35.551Z,114.43
2022-11-04T22:41:03.771Z,116.47
2022-11-04T22:43:30.407Z,119.38
2022-11-04T22:45:57.755Z,103.47
2022-11-04T22:48:24.458Z,114.45
2022-11-04T22:53:04.639Z,114.15
2022-11-04T22:55:31.288Z,114.07
2022-11-04T22:57:57.804Z,128.90
2022-11-04T23:00:24.458Z,116.20
2022-11-04T23:02:52.402Z,118.90
2022-11-04T23:05:19.546Z,109.90
2022-11-04T23:07:46.078Z,119.32
2022-11-04T23:12:59.054Z,119.28
2022-11-04T23:15:44.266Z,118.75
2022-11-04T23:18:31.555Z,110.32
2022-11-04T23:21:16.779Z,111.60
2022-11-04T23:24:01.718Z,110.18
2022-11-04T23:26:29.034Z,106.72
2022-11-04T23:29:13.782Z,107.60
2022-11-04T23:31:40.572Z,105.68
2022-11-04T23:34:26.786Z,107.60
2022-11-04T23:37:11.837Z,110.90
2022-11-04T23:39:46.764Z,140.95
2022-11-04T23:42:22.862Z,140.52
2022-11-04T23:45:13.289Z,187.95
2022-11-04T23:48:00.084Z,148.90
2022-11-04T23:50:48.178Z,132.25
2022-11-04T23:53:35.386Z,131.80
2022-11-04T23:56:20.936Z,130.80
2022-11-04T23:59:05.916Z,121.60
